Tropical Cyclones
[Index]
Main Index Home Page Stock Weather Photos Extreme Storms Discussion Storm News and Storm Chasing Reports Tropical Cyclones / Hurricanes / Typhoons Weather Data and Links Wild Fires / Bushfires Weather Observation Techniques Weather Picture Catalogue Tornado Pictures and Reports Stock Video Footage and DVDs for sale
Season 1999-2000 Tropical Cyclone 200017 Track Map
Season 1999-2000 Summaries (Operational Data): [AU] [SIO] [SPAC] [SH]
<<- Previous TC | 1999-2000 Season | Next TC ->>

click for intensity scale information  Lat/long Grid: Show Hide

 Date Labels: Show Hide

Operational Tropical Cyclone Data : JTWC Advisories

Name: 200017
Number: 0017

01 Mar 2000 06:00 UTC to 07 Mar 2000 12:00 UTC

    date/time    lat    long     hPa   cat  kts
2000-03-01 06   13.2    88.3    1000         25          
2000-03-01 12   13.6    88.1    1000         25          
2000-03-01 18   13.6    87.8    1000         25          
2000-03-02 00   13.3    86.8     998         25          
2000-03-02 06   13.5    86.4     998         30          
2000-03-02 12   13.9    86.2     998         30          
2000-03-02 18   14.4    85.5     998         30          
2000-03-03 00   14.8    85.4     998         30          
2000-03-03 06   15.6    85.5     998         30          
2000-03-03 12   16.0    84.5     998         30          
2000-03-03 18   16.3    84.1     998         30          
2000-03-04 00   16.0    82.9     998         30          
2000-03-04 06   16.1    82.7     998         30          
2000-03-04 12   16.3    82.3     998         30          
2000-03-04 18   16.3    81.1     998         30          
2000-03-05 00   16.5    80.0     998         30          
2000-03-05 06   15.5    80.8    1000         25          
2000-03-06 06   14.1    80.2    1000         25          
2000-03-06 12   14.3    81.1     998         30          
2000-03-06 18   14.9    81.5     998         30          
2000-03-07 00   14.9    82.5     998         30          
2000-03-07 06   14.7    83.7    1000         30          
2000-03-07 12   15.0    84.6    1002         25          
Winds are 10-min average.

Tropical cyclone tracks developed by Michael Bath using operational warnings and advisories and Google Maps.


[Australian Severe Weather index] [Copyright Notice] [Email Contacts] [Search This Site] [Privacy Policy]
Document: tropical_cyclone_200017.htm Updated: 28 May 2013